createdAt,value
2022-12-20T00:03:53.112Z,27.63
2022-12-20T00:12:01.227Z,25.65
2022-12-20T00:20:13.850Z,27.58
2022-12-20T00:28:23.425Z,28.97
2022-12-20T00:36:33.755Z,30.55
2022-12-20T00:44:41.848Z,27.42
2022-12-20T00:52:47.357Z,26.20
2022-12-20T01:00:57.093Z,27.08
2022-12-20T01:09:03.679Z,25.15
2022-12-20T01:17:11.781Z,22.70
2022-12-20T01:25:17.318Z,25.17
2022-12-20T01:33:25.774Z,24.75
2022-12-20T01:41:32.984Z,26.80
2022-12-20T01:49:45.566Z,24.77
2022-12-20T01:57:54.457Z,28.40
2022-12-20T02:06:18.281Z,23.65
2022-12-20T02:14:36.189Z,25.85
2022-12-20T02:23:00.399Z,26.67
2022-12-20T02:31:14.766Z,26.88
2022-12-20T02:39:20.576Z,25.50
2022-12-20T02:47:33.917Z,26.55
2022-12-20T02:55:46.407Z,24.60
2022-12-20T03:03:56.132Z,25.83
2022-12-20T03:12:02.076Z,25.20
2022-12-20T03:20:15.113Z,25.67
2022-12-20T03:28:20.481Z,22.80
2022-12-20T03:36:29.151Z,20.88
2022-12-20T03:44:37.943Z,23.48
2022-12-20T03:52:46.239Z,29.20
2022-12-20T04:00:51.851Z,24.65
2022-12-20T04:09:22.129Z,23.58
2022-12-20T04:17:32.796Z,25.15
2022-12-20T04:25:41.317Z,23.35
2022-12-20T04:33:49.088Z,23.90
2022-12-20T04:41:57.485Z,21.70
2022-12-20T04:50:02.939Z,25.35
2022-12-20T04:58:11.561Z,24.95
2022-12-20T05:06:20.527Z,25.63
2022-12-20T05:14:28.783Z,26.02
2022-12-20T05:22:47.105Z,27.27
2022-12-20T05:30:55.286Z,30.10
2022-12-20T05:39:04.266Z,26.25
2022-12-20T05:47:14.611Z,25.90
2022-12-20T05:55:21.255Z,22.02
2022-12-20T06:03:29.502Z,21.60
2022-12-20T06:11:35.699Z,23.63
2022-12-20T06:19:49.253Z,24.25
2022-12-20T06:27:57.693Z,24.42
2022-12-20T06:36:07.644Z,29.38
2022-12-20T06:44:13.902Z,24.70
2022-12-20T06:52:21.991Z,21.92
2022-12-20T07:00:30.403Z,24.50
2022-12-20T07:08:38.683Z,24.80
2022-12-20T07:16:44.285Z,26.10
2022-12-20T07:24:52.393Z,33.95
2022-12-20T07:32:58.020Z,26.55
2022-12-20T07:41:11.003Z,26.95
2022-12-20T07:49:16.785Z,26.27
2022-12-20T07:57:30.653Z,25.17
2022-12-20T08:05:37.812Z,22.30
2022-12-20T08:13:47.179Z,21.60
2022-12-20T08:21:54.330Z,19.60
2022-12-20T08:30:02.581Z,18.70
2022-12-20T08:38:07.992Z,19.80
2022-12-20T08:46:22.548Z,24.65
2022-12-20T08:54:27.984Z,31.48
2022-12-20T09:02:38.487Z,29.05
2022-12-20T09:10:44.322Z,28.85
2022-12-20T09:19:00.733Z,26.75
2022-12-20T09:27:10.065Z,28.52
2022-12-20T09:35:23.003Z,28.15
2022-12-20T09:43:30.961Z,22.90
2022-12-20T09:52:05.462Z,22.02
2022-12-20T10:08:37.096Z,23.10
2022-12-20T10:16:48.133Z,23.63
2022-12-20T10:25:02.451Z,21.77
2022-12-20T10:33:08.692Z,22.10
2022-12-20T10:41:22.354Z,22.65
2022-12-20T10:49:36.417Z,22.30
2022-12-20T10:57:45.802Z,21.38
2022-12-20T11:06:01.780Z,19.67
2022-12-20T11:14:18.300Z,21.20
2022-12-20T11:22:35.156Z,19.20
2022-12-20T11:30:48.672Z,18.58
2022-12-20T11:39:02.086Z,16.00
2022-12-20T11:47:43.178Z,16.98
2022-12-20T11:55:53.685Z,16.58
2022-12-20T12:04:11.732Z,15.25
2022-12-20T12:12:26.826Z,15.10
2022-12-20T12:20:43.783Z,17.20
2022-12-20T12:28:52.805Z,18.15
2022-12-20T12:37:35.531Z,18.15
2022-12-20T12:45:46.045Z,17.15
2022-12-20T12:53:57.085Z,16.90
2022-12-20T13:02:51.789Z,18.10
2022-12-20T13:11:16.097Z,19.70
2022-12-20T13:19:34.313Z,18.42
2022-12-20T13:27:43.723Z,19.13
2022-12-20T13:36:24.911Z,17.58
2022-12-20T13:44:50.786Z,17.58
2022-12-20T13:52:57.802Z,17.73
2022-12-20T14:01:13.715Z,18.73
2022-12-20T14:09:36.633Z,16.73
2022-12-20T14:17:45.056Z,16.87
2022-12-20T14:25:54.441Z,18.55
2022-12-20T14:34:14.899Z,17.08
2022-12-20T14:42:23.638Z,19.45
2022-12-20T14:50:35.333Z,20.52
2022-12-20T14:58:40.941Z,20.58
2022-12-20T15:06:50.099Z,18.48
2022-12-20T15:14:55.470Z,19.23
2022-12-20T15:23:03.499Z,20.17
2022-12-20T15:31:09.146Z,20.58
2022-12-20T15:39:18.436Z,21.30
2022-12-20T15:47:23.831Z,21.70
2022-12-20T15:55:37.738Z,24.42
2022-12-20T16:03:45.395Z,22.73
2022-12-20T16:11:53.694Z,21.80
2022-12-20T16:19:59.362Z,20.05
2022-12-20T16:28:07.625Z,23.40
2022-12-20T16:36:14.909Z,24.35
2022-12-20T16:44:23.745Z,24.80
2022-12-20T16:52:29.855Z,27.00
2022-12-20T17:00:38.812Z,29.63
2022-12-20T17:17:07.974Z,20.88
2022-12-20T17:25:24.445Z,21.83
2022-12-20T17:33:32.824Z,20.52
2022-12-20T17:41:38.584Z,21.10
2022-12-20T17:49:46.591Z,21.58
2022-12-20T17:57:52.281Z,22.67
2022-12-20T18:06:07.545Z,24.45
2022-12-20T18:14:13.825Z,25.88
2022-12-20T18:22:21.808Z,27.20
2022-12-20T18:30:28.282Z,28.92
2022-12-20T18:38:37.928Z,30.13
2022-12-20T18:46:43.678Z,28.60
2022-12-20T18:54:51.942Z,26.90
2022-12-20T19:02:59.616Z,33.17
2022-12-20T19:11:09.615Z,31.70
2022-12-20T19:19:15.032Z,33.67
2022-12-20T19:27:23.803Z,35.00
2022-12-20T19:35:55.014Z,32.58
2022-12-20T19:43:59.519Z,32.50
2022-12-20T19:52:04.986Z,31.50
2022-12-20T20:00:14.392Z,34.50
2022-12-20T20:08:19.995Z,58.80
2022-12-20T20:16:28.311Z,71.93
2022-12-20T20:24:34.138Z,62.22
2022-12-20T20:32:42.189Z,44.72
2022-12-20T20:40:47.687Z,34.95
2022-12-20T20:48:55.571Z,31.80
2022-12-20T20:57:00.910Z,33.05
2022-12-20T21:13:35.101Z,35.28
2022-12-20T21:21:43.044Z,35.35
2022-12-20T21:29:48.433Z,35.58
2022-12-20T21:37:56.346Z,37.72
2022-12-20T21:46:01.905Z,35.80
2022-12-20T21:54:10.279Z,37.33
2022-12-20T22:02:15.904Z,32.15
2022-12-20T22:10:26.183Z,33.72
2022-12-20T22:18:31.548Z,28.95
2022-12-20T22:26:41.173Z,28.17
2022-12-20T22:34:46.550Z,29.60
2022-12-20T22:42:54.567Z,29.98
2022-12-20T22:51:02.631Z,29.85
2022-12-20T22:59:10.674Z,29.00
2022-12-20T23:07:15.925Z,35.78
2022-12-20T23:15:36.529Z,37.53
2022-12-20T23:23:42.024Z,38.53
2022-12-20T23:31:50.101Z,45.42
2022-12-20T23:39:56.655Z,42.10
2022-12-20T23:48:04.680Z,41.45
2022-12-20T23:56:13.387Z,43.65
